Time;durP1;ratioP1;P1;durP2;ratioP2;P2;SDS_P1;SDS_P2;PMS_P1;PMS_P2;Temp;Humidity;BMP_temperature;BMP_pressure;BME280_temperature;BME280_humidity;BME280_pressure;Samples;Min_cycle;Max_cycle;Signal;HPM_P1;HPM_P2
2024/01/19 00:00:24;;;;;;;253.00;106.32;;;;;;;8.23;nan;99140.69;4993598;28;20050;-67
2024/01/19 00:02:54;;;;;;;302.17;102.88;;;;;;;8.10;nan;99145.66;4991758;28;20783;-67
2024/01/19 00:05:23;;;;;;;284.13;106.45;;;;;;;8.11;nan;99147.31;4998959;28;20058;-67
2024/01/19 00:07:53;;;;;;;214.85;100.22;;;;;;;8.37;nan;99147.16;5001743;28;20042;-67
2024/01/19 00:10:23;;;;;;;233.35;100.22;;;;;;;8.29;nan;99149.78;4987801;28;20049;-66
2024/01/19 00:12:52;;;;;;;246.75;104.90;;;;;;;8.47;nan;99148.63;4996839;28;20046;-68
2024/01/19 00:15:21;;;;;;;222.70;105.18;;;;;;;8.49;nan;99162.50;4999015;28;20129;-69
2024/01/19 00:17:59;;;;;;;222.07;101.78;;;;;;;8.33;nan;99161.66;5002514;28;20121;-68
2024/01/19 00:20:29;;;;;;;226.18;104.53;;;;;;;8.42;nan;99165.94;4986114;28;20060;-68
2024/01/19 00:22:59;;;;;;;238.93;102.75;;;;;;;8.23;nan;99172.34;4998638;28;20817;-69
2024/01/19 00:25:28;;;;;;;239.10;104.97;;;;;;;8.53;nan;99168.25;5000356;28;20069;-68
2024/01/19 00:27:58;;;;;;;219.25;104.28;;;;;;;8.58;nan;99176.50;4988352;28;20057;-68
2024/01/19 00:30:27;;;;;;;240.70;108.57;;;;;;;8.33;nan;99182.78;4995355;28;20415;-68
2024/01/19 00:32:57;;;;;;;263.20;104.35;;;;;;;8.26;nan;99181.78;4999629;28;20053;-69
2024/01/19 00:35:26;;;;;;;268.67;106.35;;;;;;;8.50;nan;99187.03;4996191;28;20053;-68
2024/01/19 00:37:56;;;;;;;226.95;103.90;;;;;;;8.22;nan;99177.81;4994280;28;20124;-68
2024/01/19 00:40:25;;;;;;;294.15;105.03;;;;;;;8.18;nan;99187.88;4996339;28;20154;-68
2024/01/19 00:42:54;;;;;;;229.60;106.60;;;;;;;8.43;nan;99178.16;4990041;28;20155;-68
2024/01/19 00:45:24;;;;;;;242.27;108.18;;;;;;;8.53;nan;99178.81;4986455;28;20374;-68
2024/01/19 00:47:53;;;;;;;243.18;103.57;;;;;;;8.69;nan;99184.06;5005422;28;20128;-69
2024/01/19 00:50:23;;;;;;;220.60;105.35;;;;;;;8.71;nan;99181.25;5007214;28;20136;-68
2024/01/19 00:52:52;;;;;;;245.85;107.57;;;;;;;8.72;nan;99188.97;5003130;28;20046;-68
2024/01/19 00:55:21;;;;;;;244.30;103.10;;;;;;;8.49;nan;99182.78;5006855;28;20675;-68
2024/01/19 00:57:51;;;;;;;273.85;105.40;;;;;;;8.36;nan;99179.81;5007195;28;20046;-68
2024/01/19 01:00:21;;;;;;;238.10;103.75;;;;;;;8.34;nan;99181.78;5003690;28;20119;-68
2024/01/19 01:02:50;;;;;;;240.43;106.65;;;;;;;8.54;nan;99191.03;4985095;28;20054;-69
2024/01/19 01:05:20;;;;;;;232.30;105.88;;;;;;;8.69;nan;99197.25;4983318;28;20046;-68
2024/01/19 01:07:50;;;;;;;231.55;103.55;;;;;;;8.52;nan;99191.19;4984489;28;20049;-67
2024/01/19 01:10:20;;;;;;;238.77;103.50;;;;;;;8.47;nan;99193.50;5005783;28;20069;-68
2024/01/19 01:12:49;;;;;;;230.05;100.88;;;;;;;8.42;nan;99190.53;5004709;28;20528;-69
2024/01/19 01:15:18;;;;;;;239.65;99.97;;;;;;;8.39;nan;99196.16;4999570;28;20709;-70
2024/01/19 01:17:49;;;;;;;305.40;101.45;;;;;;;8.26;nan;99205.53;5006076;28;20826;-69
2024/01/19 01:20:20;;;;;;;217.70;97.80;;;;;;;8.65;nan;99205.69;4988428;28;20065;-69
2024/01/19 01:22:50;;;;;;;234.65;101.80;;;;;;;8.65;nan;99203.88;5006619;28;20064;-69
2024/01/19 01:25:19;;;;;;;219.80;98.35;;;;;;;8.40;nan;99194.34;5006107;28;20395;-69
2024/01/19 01:27:49;;;;;;;290.27;99.60;;;;;;;8.39;nan;99197.97;5005419;28;20128;-69
2024/01/19 01:30:18;;;;;;;226.98;98.90;;;;;;;8.39;nan;99200.59;4981677;28;20110;-67
2024/01/19 01:32:47;;;;;;;288.17;101.55;;;;;;;8.13;nan;99204.22;4987353;28;20054;-67
2024/01/19 01:35:17;;;;;;;221.35;98.05;;;;;;;8.16;nan;99210.97;4993152;28;20132;-67
2024/01/19 01:37:46;;;;;;;294.98;102.20;;;;;;;8.07;nan;99206.66;4994691;28;20050;-66
2024/01/19 01:40:15;;;;;;;224.38;102.90;;;;;;;8.28;nan;99200.88;4954065;28;20143;-67
2024/01/19 01:42:45;;;;;;;234.40;104.30;;;;;;;8.50;nan;99210.81;4999773;28;20065;-67
2024/01/19 01:45:14;;;;;;;252.13;103.53;;;;;;;8.39;nan;99208.50;5006450;28;20049;-68
2024/01/19 01:47:43;;;;;;;239.20;104.35;;;;;;;8.26;nan;99221.34;4997755;28;20057;-69
2024/01/19 01:50:13;;;;;;;218.88;100.70;;;;;;;8.44;nan;99214.94;4967230;28;20061;-68
2024/01/19 01:52:42;;;;;;;216.45;100.78;;;;;;;8.60;nan;99222.00;4968019;28;20507;-66
2024/01/19 01:55:12;;;;;;;221.10;101.32;;;;;;;8.34;nan;99221.38;4982218;28;20383;-69
2024/01/19 01:57:43;;;;;;;240.65;103.70;;;;;;;8.31;nan;99221.72;5000343;28;20050;-68
2024/01/19 02:00:17;;;;;;;245.93;103.30;;;;;;;8.20;nan;99219.38;4976406;28;20046;-68
2024/01/19 02:02:48;;;;;;;231.63;104.45;;;;;;;8.69;nan;99222.81;4967538;28;20054;-69
2024/01/19 02:05:18;;;;;;;220.35;102.60;;;;;;;8.75;nan;99227.44;4971122;28;20065;-69
2024/01/19 02:07:48;;;;;;;269.23;103.13;;;;;;;8.36;nan;99238.72;5000637;28;20133;-69
2024/01/19 02:10:17;;;;;;;224.68;101.35;;;;;;;8.41;nan;99240.81;5005459;28;20054;-69
2024/01/19 02:12:47;;;;;;;248.15;104.22;;;;;;;8.55;nan;99234.88;5005897;28;20065;-68
2024/01/19 02:15:21;;;;;;;251.00;102.50;;;;;;;8.33;nan;99243.47;5000837;28;20049;-69
2024/01/19 02:17:52;;;;;;;229.40;101.43;;;;;;;8.63;nan;99242.00;4982072;28;20050;-69
2024/01/19 02:20:22;;;;;;;219.00;100.90;;;;;;;8.58;nan;99245.94;5003961;28;20053;-69
2024/01/19 02:22:52;;;;;;;238.45;102.07;;;;;;;8.44;nan;99246.63;4986457;28;20054;-68
2024/01/19 02:25:23;;;;;;;221.85;98.03;;;;;;;8.61;nan;99247.44;4985855;28;20084;-69
2024/01/19 02:27:52;;;;;;;237.32;96.40;;;;;;;8.49;nan;99254.03;5012655;28;20064;-69
2024/01/19 02:30:22;;;;;;;221.32;98.30;;;;;;;8.47;nan;99250.75;5024265;28;20099;-70
2024/01/19 02:32:52;;;;;;;200.77;94.68;;;;;;;8.36;nan;99251.09;5000333;28;20131;-69
2024/01/19 02:35:21;;;;;;;215.13;96.15;;;;;;;8.38;nan;99246.44;4995883;28;20046;-69
2024/01/19 02:37:51;;;;;;;197.63;92.25;;;;;;;8.41;nan;99260.13;4999139;28;20684;-69
2024/01/19 02:40:21;;;;;;;232.60;95.97;;;;;;;8.22;nan;99255.16;4995970;28;20057;-68
2024/01/19 02:42:51;;;;;;;218.15;93.53;;;;;;;8.43;nan;99263.44;4982118;28;20046;-68
2024/01/19 02:45:24;;;;;;;236.90;91.57;;;;;;;8.41;nan;99261.94;4977352;28;20145;-69
2024/01/19 02:47:53;;;;;;;192.50;92.13;;;;;;;8.39;nan;99263.94;4983708;28;20054;-68
2024/01/19 02:50:23;;;;;;;205.80;92.75;;;;;;;8.28;nan;99266.84;4992426;28;20062;-69
2024/01/19 02:52:52;;;;;;;259.33;95.80;;;;;;;8.19;nan;99267.88;4991991;28;20061;-68
2024/01/19 02:55:21;;;;;;;246.13;93.15;;;;;;;8.16;nan;99276.09;5002944;28;20626;-67
2024/01/19 02:57:51;;;;;;;211.68;93.00;;;;;;;8.27;nan;99270.50;4996118;28;20046;-67
2024/01/19 03:00:20;;;;;;;247.13;96.00;;;;;;;8.18;nan;99274.94;4995075;28;20042;-67
2024/01/19 03:02:50;;;;;;;196.07;91.53;;;;;;;8.27;nan;99273.16;4993306;28;20140;-68
2024/01/19 03:05:20;;;;;;;221.60;94.65;;;;;;;8.30;nan;99280.75;4977736;28;20578;-68
2024/01/19 03:07:49;;;;;;;234.32;93.10;;;;;;;8.23;nan;99282.38;4994606;28;20128;-68
2024/01/19 03:10:18;;;;;;;210.13;93.22;;;;;;;8.37;nan;99287.00;4992248;28;20065;-67
2024/01/19 03:12:49;;;;;;;199.57;95.28;;;;;;;8.43;nan;99294.28;4992421;28;20054;-68
2024/01/19 03:15:18;;;;;;;184.38;89.68;;;;;;;8.57;nan;99283.91;4995147;28;20109;-68
2024/01/19 03:17:47;;;;;;;200.32;92.53;;;;;;;8.54;nan;99299.25;4996825;28;20536;-68
2024/01/19 03:20:16;;;;;;;209.40;94.95;;;;;;;8.64;nan;99307.81;4986211;28;20574;-67
2024/01/19 03:22:46;;;;;;;201.45;90.82;;;;;;;8.62;nan;99311.63;4993118;28;20058;-67
2024/01/19 03:25:17;;;;;;;193.27;88.72;;;;;;;8.65;nan;99314.75;4993174;28;20060;-68
2024/01/19 03:27:47;;;;;;;182.35;86.57;;;;;;;8.55;nan;99314.09;4998747;28;20127;-67
2024/01/19 03:30:16;;;;;;;180.73;87.40;;;;;;;8.55;nan;99322.00;5006504;28;20057;-69
2024/01/19 03:32:46;;;;;;;184.95;84.13;;;;;;;8.45;nan;99324.00;5007496;28;20053;-68
2024/01/19 03:35:15;;;;;;;167.52;84.55;;;;;;;8.55;nan;99329.91;4999680;28;20065;-68
2024/01/19 03:37:45;;;;;;;179.77;86.68;;;;;;;8.61;nan;99334.56;5002302;28;20613;-68
2024/01/19 03:40:14;;;;;;;173.63;86.53;;;;;;;8.52;nan;99338.19;5003734;28;20060;-68
2024/01/19 03:42:43;;;;;;;165.27;84.13;;;;;;;8.54;nan;99339.66;4988042;28;20053;-67
2024/01/19 03:45:13;;;;;;;169.65;84.30;;;;;;;8.49;nan;99338.50;4987178;28;20054;-67
2024/01/19 03:47:44;;;;;;;165.57;81.32;;;;;;;8.61;nan;99345.13;4995915;28;20045;-67
2024/01/19 03:50:14;;;;;;;161.73;84.68;;;;;;;8.62;nan;99349.41;5016483;28;20058;-69
2024/01/19 03:52:44;;;;;;;172.27;83.88;;;;;;;8.61;nan;99354.84;4986281;28;20049;-70
2024/01/19 03:55:15;;;;;;;163.02;79.60;;;;;;;8.64;nan;99362.44;4999058;28;20046;-69
2024/01/19 03:57:46;;;;;;;165.70;83.28;;;;;;;8.65;nan;99354.34;4991979;28;20368;-68
2024/01/19 04:00:15;;;;;;;169.05;86.75;;;;;;;8.63;nan;99356.31;5024091;28;20053;-68
2024/01/19 04:02:44;;;;;;;205.60;89.13;;;;;;;8.41;nan;99356.94;4994470;28;20066;-69
2024/01/19 04:05:14;;;;;;;185.82;86.82;;;;;;;8.80;nan;99355.38;5000442;28;20644;-68
2024/01/19 04:07:43;;;;;;;214.18;95.72;;;;;;;8.61;nan;99354.84;4989610;28;20429;-68
2024/01/19 04:10:13;;;;;;;231.55;101.40;;;;;;;8.71;nan;99353.72;4993982;28;20049;-68
2024/01/19 04:12:42;;;;;;;246.75;105.63;;;;;;;8.74;nan;99356.00;4963854;28;20518;-68
2024/01/19 04:15:11;;;;;;;241.45;104.45;;;;;;;8.61;nan;99357.50;4998218;28;20536;-69
2024/01/19 04:17:41;;;;;;;250.65;106.50;;;;;;;8.73;nan;99358.81;4999007;28;20053;-69
2024/01/19 04:20:11;;;;;;;243.82;107.97;;;;;;;8.44;nan;99359.28;5014458;28;20394;-69
2024/01/19 04:22:41;;;;;;;244.23;110.40;;;;;;;8.77;nan;99371.53;5017692;28;20544;-69
2024/01/19 04:25:10;;;;;;;253.02;109.88;;;;;;;8.88;nan;99378.31;5021227;28;20057;-69
2024/01/19 04:27:40;;;;;;;273.48;113.82;;;;;;;8.86;nan;99373.19;5000529;28;20374;-68
2024/01/19 04:30:09;;;;;;;247.85;108.43;;;;;;;9.03;nan;99371.34;5006626;28;20057;-69
2024/01/19 04:32:39;;;;;;;271.58;110.47;;;;;;;8.91;nan;99373.50;5016961;28;20053;-68
2024/01/19 04:35:08;;;;;;;280.85;116.13;;;;;;;9.09;nan;99378.63;4993736;28;20394;-68
2024/01/19 04:37:38;;;;;;;272.88;116.10;;;;;;;9.05;nan;99374.66;5005095;28;20084;-69
2024/01/19 04:40:07;;;;;;;269.42;113.63;;;;;;;9.31;nan;99375.28;4999847;28;20141;-69
2024/01/19 04:42:37;;;;;;;283.35;118.43;;;;;;;9.30;nan;99378.91;5021622;28;20041;-68
2024/01/19 04:45:07;;;;;;;287.52;118.78;;;;;;;9.44;nan;99382.69;5001252;28;20082;-69
2024/01/19 04:47:36;;;;;;;277.73;117.50;;;;;;;9.34;nan;99389.97;4991968;28;20155;-70
2024/01/19 04:50:07;;;;;;;272.00;114.70;;;;;;;9.52;nan;99392.41;4999340;28;20042;-69
2024/01/19 04:52:36;;;;;;;301.77;123.80;;;;;;;9.44;nan;99385.34;4997261;28;20049;-69
2024/01/19 04:55:05;;;;;;;275.30;116.72;;;;;;;9.35;nan;99386.34;4992112;28;20050;-69
2024/01/19 04:57:35;;;;;;;267.67;113.50;;;;;;;9.12;nan;99396.78;5006248;28;20065;-70
2024/01/19 05:00:05;;;;;;;296.13;115.45;;;;;;;9.22;nan;99401.91;4995339;28;20050;-69
2024/01/19 05:02:35;;;;;;;285.67;117.43;;;;;;;9.30;nan;99394.78;4991665;28;20049;-70
2024/01/19 05:05:04;;;;;;;240.77;102.53;;;;;;;9.57;nan;99404.16;4979351;28;20053;-68
2024/01/19 05:07:34;;;;;;;245.02;106.68;;;;;;;9.53;nan;99408.13;4994182;28;20521;-68
2024/01/19 05:10:05;;;;;;;253.30;108.82;;;;;;;9.56;nan;99394.56;4994358;28;20050;-68
2024/01/19 05:12:34;;;;;;;245.05;108.57;;;;;;;9.75;nan;99398.66;5020998;28;20049;-68
2024/01/19 05:15:04;;;;;;;238.23;107.50;;;;;;;9.72;nan;99386.59;4995055;28;20385;-69
2024/01/19 05:17:33;;;;;;;238.65;106.85;;;;;;;9.73;nan;99387.44;4995519;28;20140;-68
2024/01/19 05:20:03;;;;;;;271.55;113.57;;;;;;;9.47;nan;99403.50;4996248;28;20041;-70
2024/01/19 05:22:32;;;;;;;266.40;111.78;;;;;;;9.52;nan;99387.13;4995453;28;20477;-68
2024/01/19 05:25:03;;;;;;;247.07;108.78;;;;;;;9.79;nan;99400.78;4989182;28;20058;-69
2024/01/19 05:27:32;;;;;;;251.18;109.82;;;;;;;10.12;nan;99404.16;4995189;28;20137;-69
2024/01/19 05:30:02;;;;;;;241.95;108.88;;;;;;;10.19;nan;99396.34;4991573;28;20086;-68
2024/01/19 05:32:34;;;;;;;256.08;112.43;;;;;;;10.14;nan;99399.50;4989307;28;20034;-68
2024/01/19 05:35:04;;;;;;;255.68;109.78;;;;;;;10.27;nan;99405.09;4997425;28;20054;-64
2024/01/19 05:37:33;;;;;;;243.88;108.68;;;;;;;10.23;nan;99405.59;4986983;28;20183;-66
2024/01/19 05:40:03;;;;;;;251.52;112.57;;;;;;;10.87;nan;99404.41;4972600;28;20054;-65
2024/01/19 05:42:33;;;;;;;266.85;114.72;;;;;;;10.98;nan;99405.78;4997869;28;20046;-66
2024/01/19 05:45:03;;;;;;;269.17;120.95;;;;;;;11.30;nan;99407.34;4997000;28;20488;-67
2024/01/19 05:47:33;;;;;;;250.27;115.28;;;;;;;11.61;nan;99408.03;4997381;28;20049;-66
2024/01/19 05:50:03;;;;;;;266.55;118.15;;;;;;;11.49;nan;99405.00;4996780;28;20711;-66
2024/01/19 05:52:32;;;;;;;261.30;121.65;;;;;;;11.69;nan;99398.16;4994433;28;20049;-66
2024/01/19 05:55:02;;;;;;;234.90;110.70;;;;;;;12.21;nan;99397.25;4993624;28;20391;-65
2024/01/19 05:57:31;;;;;;;250.50;115.50;;;;;;;12.21;nan;99397.25;4991991;28;20136;-66
2024/01/19 06:00:01;;;;;;;243.68;111.95;;;;;;;12.41;nan;99400.97;4995410;28;20116;-65
2024/01/19 06:02:38;;;;;;;232.07;109.13;;;;;;;11.92;nan;99397.28;4998565;28;20477;-65
2024/01/19 06:05:08;;;;;;;217.30;106.57;;;;;;;12.74;nan;99403.16;4983131;28;20053;-66
2024/01/19 06:07:37;;;;;;;214.30;107.00;;;;;;;13.17;nan;99398.69;4992693;28;20065;-66
2024/01/19 06:10:07;;;;;;;215.77;107.75;;;;;;;13.63;nan;99394.50;4987544;28;20053;-66
2024/01/19 06:12:36;;;;;;;225.85;108.97;;;;;;;13.57;nan;99391.81;4992151;28;20584;-65
2024/01/19 06:15:06;;;;;;;225.40;110.13;;;;;;;13.31;nan;99385.31;4995322;28;20054;-65
2024/01/19 06:17:36;;;;;;;222.85;109.95;;;;;;;13.46;nan;99391.34;4998994;28;20056;-66
2024/01/19 06:20:05;;;;;;;212.75;106.28;;;;;;;13.46;nan;99382.53;4992060;28;20053;-66
2024/01/19 06:22:35;;;;;;;220.48;111.22;;;;;;;13.65;nan;99383.69;4996414;28;20037;-66
2024/01/19 06:25:05;;;;;;;212.00;106.97;;;;;;;13.13;nan;99381.47;4996845;28;20049;-65
2024/01/19 06:27:35;;;;;;;203.55;105.63;;;;;;;13.40;nan;99368.19;4994816;28;20064;-66
2024/01/19 06:30:06;;;;;;;196.55;103.50;;;;;;;14.05;nan;99366.91;4986692;28;20192;-67
2024/01/19 06:32:36;;;;;;;209.82;106.63;;;;;;;13.91;nan;99371.34;4978086;28;20637;-66
2024/01/19 06:35:06;;;;;;;204.57;106.07;;;;;;;14.16;nan;99370.84;4956724;28;20485;-66
2024/01/19 06:37:39;;;;;;;200.95;107.03;;;;;;;14.42;nan;99356.81;4967333;28;20140;-66
2024/01/19 06:40:10;;;;;;;222.60;110.57;;;;;;;14.67;nan;99368.56;4979183;28;20054;-66
2024/01/19 06:42:40;;;;;;;227.23;109.85;;;;;;;14.51;nan;99355.63;4980472;28;20074;-66
2024/01/19 06:45:09;;;;;;;218.30;112.18;;;;;;;14.03;nan;99342.28;4976610;28;20164;-65
2024/01/19 06:47:38;;;;;;;227.68;113.03;;;;;;;14.23;nan;99343.22;4979991;28;20343;-66
2024/01/19 06:50:08;;;;;;;216.10;111.75;;;;;;;14.30;nan;99330.72;4971654;28;20371;-66
2024/01/19 06:52:39;;;;;;;226.18;111.95;;;;;;;14.44;nan;99334.25;4982188;28;20451;-66
2024/01/19 06:55:08;;;;;;;202.02;109.55;;;;;;;14.83;nan;99323.66;4972915;28;20042;-66
2024/01/19 06:57:39;;;;;;;228.73;115.78;;;;;;;14.35;nan;99332.78;4975576;28;20058;-65
2024/01/19 07:00:09;;;;;;;228.57;115.22;;;;;;;14.34;nan;99323.13;4976697;28;20046;-65
2024/01/19 07:02:38;;;;;;;219.25;112.18;;;;;;;14.11;nan;99318.16;4980570;28;20056;-65
2024/01/19 07:05:07;;;;;;;223.45;114.63;;;;;;;14.59;nan;99323.44;4971410;28;20144;-68
2024/01/19 07:07:37;;;;;;;231.40;116.72;;;;;;;14.27;nan;99316.97;4991679;28;20441;-68
2024/01/19 07:10:07;;;;;;;229.63;116.13;;;;;;;14.29;nan;99320.28;4983139;28;20483;-68
2024/01/19 07:12:36;;;;;;;240.20;114.60;;;;;;;14.42;nan;99312.34;4988084;28;20791;-67
2024/01/19 07:15:07;;;;;;;225.82;118.22;;;;;;;14.54;nan;99301.91;4987746;28;20378;-68
2024/01/19 07:17:36;;;;;;;233.60;119.07;;;;;;;14.86;nan;99298.44;4984517;28;20131;-69
2024/01/19 07:20:07;;;;;;;226.63;115.65;;;;;;;14.89;nan;99290.00;4976599;28;20046;-68
2024/01/19 07:22:37;;;;;;;214.40;115.63;;;;;;;15.24;nan;99293.25;4983726;28;20592;-68
2024/01/19 07:25:07;;;;;;;241.73;118.00;;;;;;;14.92;nan;99292.25;4962644;28;20137;-68
2024/01/19 07:27:36;;;;;;;227.95;114.53;;;;;;;14.80;nan;99288.59;4987625;28;20080;-68
2024/01/19 07:30:06;;;;;;;219.63;110.10;;;;;;;15.14;nan;99292.84;5005190;28;20057;-69
2024/01/19 07:32:36;;;;;;;227.48;114.95;;;;;;;14.85;nan;99294.13;5004134;28;20423;-68
2024/01/19 07:35:19;;;;;;;246.43;119.13;;;;;;;15.07;nan;99286.72;5005350;28;20073;-69
2024/01/19 07:37:49;;;;;;;226.45;112.97;;;;;;;15.16;nan;99282.81;5005188;28;20139;-69
2024/01/19 07:40:20;;;;;;;217.30;114.28;;;;;;;15.38;nan;99278.06;4998080;28;20121;-69
2024/01/19 07:42:51;;;;;;;227.60;115.38;;;;;;;15.33;nan;99283.19;4995640;28;20140;-69
2024/01/19 07:45:21;;;;;;;227.90;120.78;;;;;;;15.23;nan;99272.94;4996450;28;20193;-69
2024/01/19 07:47:50;;;;;;;239.23;118.40;;;;;;;15.24;nan;99270.06;4999515;28;20049;-69
2024/01/19 07:50:20;;;;;;;233.93;116.72;;;;;;;15.25;nan;99266.38;4999685;28;20046;-68
2024/01/19 07:52:49;;;;;;;223.20;116.82;;;;;;;15.15;nan;99268.66;5003707;28;20117;-68
2024/01/19 07:55:20;;;;;;;226.88;119.57;;;;;;;14.90;nan;99265.00;5003381;28;20073;-69
2024/01/19 07:57:50;;;;;;;231.00;118.15;;;;;;;15.10;nan;99255.13;4997431;28;20567;-67
2024/01/19 08:00:19;;;;;;;230.48;119.75;;;;;;;15.34;nan;99253.63;4996048;28;20064;-69
2024/01/19 08:02:49;;;;;;;220.90;116.82;;;;;;;15.40;nan;99249.31;4994282;28;20053;-69
2024/01/19 08:05:19;;;;;;;217.95;115.07;;;;;;;15.00;nan;99244.03;4994029;28;20542;-68
2024/01/19 08:07:48;;;;;;;219.25;113.18;;;;;;;14.94;nan;99238.72;5001288;28;20058;-69
2024/01/19 08:10:18;;;;;;;233.20;117.20;;;;;;;15.08;nan;99243.03;5001877;28;20084;-69
2024/01/19 08:12:49;;;;;;;228.90;118.75;;;;;;;14.99;nan;99233.59;5002406;28;20100;-69
2024/01/19 08:15:18;;;;;;;194.15;102.82;;;;;;;14.93;nan;99232.56;4991241;28;20599;-69
2024/01/19 08:17:48;;;;;;;199.95;101.82;;;;;;;14.95;nan;99221.69;5009685;28;20073;-68
2024/01/19 08:20:17;;;;;;;208.70;103.40;;;;;;;14.99;nan;99221.09;4998581;28;20585;-69
2024/01/19 08:22:47;;;;;;;206.23;104.22;;;;;;;14.67;nan;99224.59;4998904;28;20053;-70
2024/01/19 08:25:17;;;;;;;219.90;106.88;;;;;;;14.69;nan;99220.69;5002205;28;20053;-68
2024/01/19 08:27:46;;;;;;;213.77;102.45;;;;;;;14.92;nan;99220.25;5001481;28;20067;-69
2024/01/19 08:30:16;;;;;;;213.60;106.55;;;;;;;14.84;nan;99215.13;4986788;28;20136;-69
2024/01/19 08:32:46;;;;;;;203.88;103.35;;;;;;;14.94;nan;99212.88;4991844;28;20062;-69
2024/01/19 08:35:15;;;;;;;203.20;98.40;;;;;;;15.02;nan;99219.84;4999407;28;20108;-69
2024/01/19 08:37:45;;;;;;;192.73;95.78;;;;;;;14.92;nan;99214.09;4999277;28;20152;-69
2024/01/19 08:40:14;;;;;;;189.80;97.35;;;;;;;14.82;nan;99198.53;4996017;28;20120;-69
2024/01/19 08:42:44;;;;;;;177.55;95.93;;;;;;;14.83;nan;99205.50;5002650;28;20064;-69
2024/01/19 08:45:13;;;;;;;191.20;94.85;;;;;;;14.57;nan;99206.34;5001681;28;20050;-69
2024/01/19 08:47:43;;;;;;;176.70;91.13;;;;;;;14.72;nan;99192.81;4996136;28;20058;-69
2024/01/19 08:50:12;;;;;;;181.48;94.95;;;;;;;14.87;nan;99195.25;4983937;28;20165;-69
2024/01/19 08:52:42;;;;;;;172.85;90.68;;;;;;;14.64;nan;99188.50;4997637;28;20045;-69
2024/01/19 08:55:11;;;;;;;184.07;92.68;;;;;;;14.50;nan;99186.06;4998823;28;20053;-69
2024/01/19 08:57:40;;;;;;;177.40;88.72;;;;;;;14.69;nan;99191.34;5002502;28;20152;-69
2024/01/19 09:00:10;;;;;;;176.10;90.03;;;;;;;14.62;nan;99182.56;4999418;28;20062;-69
2024/01/19 09:02:40;;;;;;;186.32;90.35;;;;;;;14.56;nan;99182.56;4976444;28;20050;-69
2024/01/19 09:05:17;;;;;;;176.10;91.18;;;;;;;14.50;nan;99175.41;4992271;28;20050;-68
2024/01/19 09:07:46;;;;;;;177.68;92.18;;;;;;;14.80;nan;99184.59;4986524;28;20541;-67
2024/01/19 09:10:16;;;;;;;173.73;91.90;;;;;;;14.72;nan;99180.28;4995768;28;20380;-68
2024/01/19 09:12:45;;;;;;;175.25;92.57;;;;;;;14.67;nan;99179.28;4997772;28;20052;-68
2024/01/19 09:15:16;;;;;;;176.68;91.78;;;;;;;14.76;nan;99175.38;5003386;28;20149;-68
2024/01/19 09:17:47;;;;;;;183.35;91.35;;;;;;;14.90;nan;99171.66;5000351;28;20061;-68
2024/01/19 09:20:17;;;;;;;178.02;91.03;;;;;;;14.92;nan;99171.44;4993221;28;20065;-68
2024/01/19 09:22:46;;;;;;;183.18;89.97;;;;;;;14.78;nan;99165.31;4991230;28;20058;-68
2024/01/19 09:25:16;;;;;;;181.98;92.35;;;;;;;14.82;nan;99169.22;4976436;28;20600;-68
2024/01/19 09:27:46;;;;;;;181.73;92.22;;;;;;;14.76;nan;99162.84;4989654;28;20077;-67
2024/01/19 09:30:18;;;;;;;185.68;93.35;;;;;;;14.70;nan;99157.53;4993184;28;21439;-68
2024/01/19 09:32:47;;;;;;;180.48;94.38;;;;;;;14.85;nan;99155.44;4997258;28;20049;-69
2024/01/19 09:35:17;;;;;;;196.30;95.72;;;;;;;15.07;nan;99158.69;4994060;28;20136;-69
2024/01/19 09:37:46;;;;;;;185.25;94.18;;;;;;;14.90;nan;99158.31;4994414;28;20612;-69
2024/01/19 09:40:19;;;;;;;184.65;94.80;;;;;;;14.96;nan;99148.66;4991077;28;20049;-70
2024/01/19 09:42:54;;;;;;;190.77;95.10;;;;;;;14.81;nan;99154.22;4992160;28;20046;-70
2024/01/19 09:45:26;;;;;;;191.07;92.75;;;;;;;14.72;nan;99155.47;4988627;28;20553;-69
2024/01/19 09:48:08;;;;;;;175.32;91.05;;;;;;;14.61;nan;99159.59;4998881;28;20066;-69
2024/01/19 09:50:39;;;;;;;183.57;93.07;;;;;;;14.68;nan;99159.59;5000255;28;20084;-69
2024/01/19 09:53:17;;;;;;;179.85;92.60;;;;;;;14.67;nan;99163.28;5003254;28;20054;-69
2024/01/19 09:55:47;;;;;;;184.40;93.78;;;;;;;14.76;nan;99156.69;5006529;28;20050;-69
2024/01/19 09:58:19;;;;;;;191.07;92.97;;;;;;;14.88;nan;99156.88;4992690;28;20054;-70
2024/01/19 10:00:50;;;;;;;201.07;95.97;;;;;;;14.84;nan;99156.47;4994424;28;20064;-69
2024/01/19 10:03:22;;;;;;;173.00;90.90;;;;;;;15.03;nan;99146.78;4995458;28;20283;-70
2024/01/19 10:05:52;;;;;;;192.43;92.82;;;;;;;14.87;nan;99144.59;4996986;28;20065;-69
2024/01/19 10:08:22;;;;;;;181.77;91.00;;;;;;;15.09;nan;99149.41;5000403;28;20054;-69
2024/01/19 10:10:54;;;;;;;181.43;94.68;;;;;;;15.01;nan;99149.66;5008083;28;20741;-70
2024/01/19 10:13:23;;;;;;;188.15;92.15;;;;;;;14.87;nan;99148.03;5001591;28;20049;-68
2024/01/19 10:15:53;;;;;;;173.57;89.30;;;;;;;14.68;nan;99155.06;4999181;28;20768;-69
2024/01/19 10:18:23;;;;;;;193.43;91.80;;;;;;;14.78;nan;99152.00;4990204;28;20050;-67
2024/01/19 10:20:53;;;;;;;182.80;89.88;;;;;;;14.79;nan;99153.59;4996837;28;20042;-69
2024/01/19 10:23:24;;;;;;;177.82;89.80;;;;;;;14.81;nan;99144.38;4991801;28;20050;-69
2024/01/19 10:26:12;;;;;;;194.45;92.07;;;;;;;14.87;nan;99144.59;4990781;28;20039;-69
2024/01/19 10:28:42;;;;;;;185.15;93.65;;;;;;;15.05;nan;99139.38;4989390;28;20469;-69
2024/01/19 10:31:22;;;;;;;198.43;94.85;;;;;;;14.99;nan;99142.91;4988493;28;20082;-70
2024/01/19 10:33:53;;;;;;;200.43;97.82;;;;;;;14.94;nan;99143.53;4991857;28;20050;-70
2024/01/19 10:36:24;;;;;;;193.45;96.70;;;;;;;14.86;nan;99143.75;4983112;28;20062;-70
2024/01/19 10:39:15;;;;;;;186.32;94.82;;;;;;;14.76;nan;99141.53;4983560;28;20049;-70
2024/01/19 10:41:45;;;;;;;197.35;98.82;;;;;;;14.87;nan;99129.38;4970670;28;20050;-71
2024/01/19 10:44:17;;;;;;;197.27;96.88;;;;;;;14.72;nan;99129.63;4965394;28;20046;-70
2024/01/19 10:46:50;;;;;;;194.80;96.15;;;;;;;14.72;nan;99131.47;4969349;28;20051;-71
2024/01/19 10:49:19;;;;;;;196.60;98.67;;;;;;;14.73;nan;99125.94;4990193;28;20443;-70
2024/01/19 10:51:49;;;;;;;189.18;92.72;;;;;;;14.73;nan;99123.28;4998516;28;20291;-70
2024/01/19 10:54:24;;;;;;;195.98;97.22;;;;;;;14.65;nan;99120.00;4991019;28;20072;-69
2024/01/19 10:57:10;;;;;;;196.07;94.63;;;;;;;14.55;nan;99127.63;5000478;28;20054;-70
2024/01/19 10:59:39;;;;;;;198.43;93.40;;;;;;;14.70;nan;99121.00;4988777;28;20101;-69
2024/01/19 11:02:09;;;;;;;192.48;97.65;;;;;;;14.77;nan;99121.00;4995490;28;20071;-69
2024/01/19 11:04:39;;;;;;;194.15;97.47;;;;;;;14.66;nan;99125.13;4992417;28;20612;-70
2024/01/19 11:07:09;;;;;;;200.50;95.93;;;;;;;14.64;nan;99131.72;4983997;28;20139;-69
2024/01/19 11:09:40;;;;;;;195.25;96.40;;;;;;;14.60;nan;99130.50;5001321;28;20057;-69
2024/01/19 11:12:17;;;;;;;194.98;97.93;;;;;;;14.76;nan;99124.69;4973335;28;20065;-69
2024/01/19 11:14:47;;;;;;;191.45;95.38;;;;;;;14.54;nan;99128.63;4989187;28;20490;-69
2024/01/19 11:17:17;;;;;;;195.70;97.40;;;;;;;14.45;nan;99121.88;4986790;28;20052;-69
2024/01/19 11:19:47;;;;;;;184.90;92.72;;;;;;;14.57;nan;99126.38;4997286;28;20061;-70
2024/01/19 11:22:16;;;;;;;200.55;96.28;;;;;;;14.64;nan;99129.03;4971977;28;20082;-69
2024/01/19 11:24:49;;;;;;;189.73;92.45;;;;;;;14.45;nan;99127.22;4969613;28;20054;-68
2024/01/19 11:27:40;;;;;;;190.45;94.03;;;;;;;14.39;nan;99126.19;4982309;28;20144;-69
2024/01/19 11:30:27;;;;;;;190.15;93.50;;;;;;;14.37;nan;99134.41;4995237;28;20056;-69
2024/01/19 11:32:56;;;;;;;186.70;92.78;;;;;;;14.23;nan;99131.91;5000452;28;20060;-69
2024/01/19 11:35:54;;;;;;;187.73;95.25;;;;;;;14.22;nan;99123.09;4997896;28;20119;-69
2024/01/19 11:38:50;;;;;;;205.02;95.80;;;;;;;14.17;nan;99132.72;4996126;28;20437;-69